sensor_id;sensor_type;location;lat;lon;timestamp;pressure;altitude;pressure_sealevel;temperature;humidity
70730;BME280;58315;53.336;55.932;2023-04-24T00:01:20;100171.47;;;10.33;45.84
70730;BME280;58315;53.336;55.932;2023-04-24T00:03:46;100171.47;;;10.33;45.55
70730;BME280;58315;53.336;55.932;2023-04-24T00:06:13;100185.28;;;10.36;45.49
70730;BME280;58315;53.336;55.932;2023-04-24T00:08:38;100181.56;;;10.39;45.66
70730;BME280;58315;53.336;55.932;2023-04-24T00:11:05;100186.84;;;10.39;45.41
70730;BME280;58315;53.336;55.932;2023-04-24T00:13:31;100190.56;;;10.36;45.75
70730;BME280;58315;53.336;55.932;2023-04-24T00:15:57;100190.94;;;10.32;45.55
70730;BME280;58315;53.336;55.932;2023-04-24T00:18:23;100198.13;;;10.19;46.05
70730;BME280;58315;53.336;55.932;2023-04-24T00:20:49;100199.31;;;10.14;46.05
70730;BME280;58315;53.336;55.932;2023-04-24T00:23:15;100205.06;;;10.08;46.54
70730;BME280;58315;53.336;55.932;2023-04-24T00:25:41;100205.56;;;10.02;46.34
70730;BME280;58315;53.336;55.932;2023-04-24T00:28:07;100203.63;;;9.93;47.14
70730;BME280;58315;53.336;55.932;2023-04-24T00:30:34;100207.25;;;9.92;47.09
70730;BME280;58315;53.336;55.932;2023-04-24T00:33:00;100206.13;;;9.83;47.14
70730;BME280;58315;53.336;55.932;2023-04-24T00:35:26;100207.47;;;9.89;47.01
70730;BME280;58315;53.336;55.932;2023-04-24T00:37:52;100209.28;;;9.88;46.90
70730;BME280;58315;53.336;55.932;2023-04-24T00:40:18;100210.09;;;9.78;47.34
70730;BME280;58315;53.336;55.932;2023-04-24T00:42:46;100216.22;;;9.78;47.31
70730;BME280;58315;53.336;55.932;2023-04-24T00:45:12;100215.97;;;9.70;47.36
70730;BME280;58315;53.336;55.932;2023-04-24T00:47:39;100211.06;;;9.65;47.82
70730;BME280;58315;53.336;55.932;2023-04-24T00:50:05;100213.44;;;9.69;47.92
70730;BME280;58315;53.336;55.932;2023-04-24T00:52:32;100226.41;;;9.72;47.60
70730;BME280;58315;53.336;55.932;2023-04-24T00:54:59;100219.69;;;9.68;47.78
70730;BME280;58315;53.336;55.932;2023-04-24T00:57:26;100219.56;;;9.69;47.61
70730;BME280;58315;53.336;55.932;2023-04-24T00:59:53;100229.75;;;9.62;47.91
70730;BME280;58315;53.336;55.932;2023-04-24T01:02:21;100229.63;;;9.64;48.09
70730;BME280;58315;53.336;55.932;2023-04-24T01:04:49;100228.06;;;9.61;47.95
70730;BME280;58315;53.336;55.932;2023-04-24T01:07:19;100227.59;;;9.68;47.89
70730;BME280;58315;53.336;55.932;2023-04-24T01:09:48;100229.25;;;9.69;47.86
70730;BME280;58315;53.336;55.932;2023-04-24T01:12:15;100233.31;;;9.61;47.87
70730;BME280;58315;53.336;55.932;2023-04-24T01:14:41;100242.78;;;9.53;48.15
70730;BME280;58315;53.336;55.932;2023-04-24T01:17:08;100236.44;;;9.55;48.23
70730;BME280;58315;53.336;55.932;2023-04-24T01:19:35;100252.06;;;9.58;48.21
70730;BME280;58315;53.336;55.932;2023-04-24T01:22:10;100256.63;;;9.68;48.25
70730;BME280;58315;53.336;55.932;2023-04-24T01:24:36;100258.03;;;9.60;48.09
70730;BME280;58315;53.336;55.932;2023-04-24T01:27:04;100264.38;;;9.58;48.61
70730;BME280;58315;53.336;55.932;2023-04-24T01:29:30;100261.06;;;9.67;48.04
70730;BME280;58315;53.336;55.932;2023-04-24T01:31:56;100268.13;;;9.66;48.31
70730;BME280;58315;53.336;55.932;2023-04-24T01:34:24;100262.63;;;9.70;48.27
70730;BME280;58315;53.336;55.932;2023-04-24T01:36:51;100270.94;;;9.76;48.12
70730;BME280;58315;53.336;55.932;2023-04-24T01:39:17;100270.81;;;9.78;48.20
70730;BME280;58315;53.336;55.932;2023-04-24T01:41:43;100273.31;;;9.79;47.78
70730;BME280;58315;53.336;55.932;2023-04-24T01:44:09;100271.50;;;9.80;47.99
70730;BME280;58315;53.336;55.932;2023-04-24T01:46:35;100271.28;;;9.83;48.07
70730;BME280;58315;53.336;55.932;2023-04-24T01:49:03;100281.63;;;9.86;47.69
70730;BME280;58315;53.336;55.932;2023-04-24T01:51:29;100282.59;;;9.85;48.23
70730;BME280;58315;53.336;55.932;2023-04-24T01:53:56;100284.25;;;9.86;47.83
70730;BME280;58315;53.336;55.932;2023-04-24T01:56:22;100297.69;;;9.83;47.96
70730;BME280;58315;53.336;55.932;2023-04-24T01:58:53;100302.97;;;9.83;48.48
70730;BME280;58315;53.336;55.932;2023-04-24T02:01:21;100303.69;;;9.85;48.23
70730;BME280;58315;53.336;55.932;2023-04-24T02:03:47;100304.53;;;9.85;48.28
70730;BME280;58315;53.336;55.932;2023-04-24T02:06:14;100304.31;;;9.88;48.51
70730;BME280;58315;53.336;55.932;2023-04-24T02:08:40;100310.28;;;9.90;48.20
70730;BME280;58315;53.336;55.932;2023-04-24T02:11:06;100311.41;;;9.99;48.24
70730;BME280;58315;53.336;55.932;2023-04-24T02:13:32;100316.78;;;9.98;48.38
70730;BME280;58315;53.336;55.932;2023-04-24T02:16:00;100317.31;;;10.03;48.63
70730;BME280;58315;53.336;55.932;2023-04-24T02:18:46;100321.53;;;10.17;48.03
70730;BME280;58315;53.336;55.932;2023-04-24T02:21:12;100327.53;;;10.19;48.69
70730;BME280;58315;53.336;55.932;2023-04-24T02:23:38;100320.78;;;10.14;48.47
70730;BME280;58315;53.336;55.932;2023-04-24T02:26:05;100327.56;;;10.30;48.52
70730;BME280;58315;53.336;55.932;2023-04-24T02:28:31;100330.56;;;10.36;48.57
70730;BME280;58315;53.336;55.932;2023-04-24T02:30:57;100333.69;;;10.42;48.69
70730;BME280;58315;53.336;55.932;2023-04-24T02:33:24;100332.63;;;10.44;48.46
70730;BME280;58315;53.336;55.932;2023-04-24T02:35:50;100339.34;;;10.48;48.59
70730;BME280;58315;53.336;55.932;2023-04-24T02:38:16;100332.63;;;10.55;48.41
70730;BME280;58315;53.336;55.932;2023-04-24T02:40:43;100341.28;;;10.69;48.08
70730;BME280;58315;53.336;55.932;2023-04-24T02:43:10;100350.75;;;10.71;48.28
70730;BME280;58315;53.336;55.932;2023-04-24T02:45:37;100345.00;;;10.77;48.09
70730;BME280;58315;53.336;55.932;2023-04-24T02:48:04;100350.28;;;10.89;47.88
70730;BME280;58315;53.336;55.932;2023-04-24T02:50:30;100351.22;;;10.99;47.71
70730;BME280;58315;53.336;55.932;2023-04-24T02:52:57;100352.56;;;11.04;47.72
70730;BME280;58315;53.336;55.932;2023-04-24T02:55:23;100356.84;;;11.17;47.67
70730;BME280;58315;53.336;55.932;2023-04-24T02:57:49;100357.31;;;11.22;47.73
70730;BME280;58315;53.336;55.932;2023-04-24T03:00:15;100357.28;;;11.33;47.20
70730;BME280;58315;53.336;55.932;2023-04-24T03:02:42;100371.34;;;11.45;46.94
70730;BME280;58315;53.336;55.932;2023-04-24T03:05:08;100366.38;;;11.51;47.14
70730;BME280;58315;53.336;55.932;2023-04-24T03:07:34;100369.94;;;11.62;46.92
70730;BME280;58315;53.336;55.932;2023-04-24T03:10:01;100374.41;;;11.61;46.89
70730;BME280;58315;53.336;55.932;2023-04-24T03:12:27;100369.44;;;11.68;46.37
70730;BME280;58315;53.336;55.932;2023-04-24T03:14:53;100373.53;;;11.72;46.59
70730;BME280;58315;53.336;55.932;2023-04-24T03:17:19;100371.78;;;11.82;46.60
70730;BME280;58315;53.336;55.932;2023-04-24T03:19:45;100373.94;;;11.88;46.14
70730;BME280;58315;53.336;55.932;2023-04-24T03:22:12;100388.69;;;12.02;46.28
70730;BME280;58315;53.336;55.932;2023-04-24T03:24:39;100381.84;;;12.20;45.78
70730;BME280;58315;53.336;55.932;2023-04-24T03:27:06;100387.41;;;12.38;45.83
70730;BME280;58315;53.336;55.932;2023-04-24T03:29:50;100394.50;;;12.59;45.35
70730;BME280;58315;53.336;55.932;2023-04-24T03:32:24;100390.63;;;13.43;44.49
70730;BME280;58315;53.336;55.932;2023-04-24T03:34:51;100385.97;;;14.99;41.99
70730;BME280;58315;53.336;55.932;2023-04-24T03:37:17;100403.69;;;16.43;39.49
70730;BME280;58315;53.336;55.932;2023-04-24T03:39:50;100395.13;;;17.93;36.88
70730;BME280;58315;53.336;55.932;2023-04-24T03:42:20;100395.47;;;19.34;35.16
70730;BME280;58315;53.336;55.932;2023-04-24T03:44:54;100402.56;;;20.50;33.05
70730;BME280;58315;53.336;55.932;2023-04-24T03:47:23;100402.00;;;21.28;31.08
70730;BME280;58315;53.336;55.932;2023-04-24T03:49:50;100400.72;;;22.03;30.75
70730;BME280;58315;53.336;55.932;2023-04-24T03:52:16;100407.59;;;22.90;29.26
70730;BME280;58315;53.336;55.932;2023-04-24T03:54:43;100401.91;;;23.61;28.32
70730;BME280;58315;53.336;55.932;2023-04-24T03:57:10;100404.94;;;24.39;29.22
70730;BME280;58315;53.336;55.932;2023-04-24T03:59:41;100411.88;;;25.07;27.49
70730;BME280;58315;53.336;55.932;2023-04-24T04:02:16;100416.88;;;25.55;26.96
70730;BME280;58315;53.336;55.932;2023-04-24T04:04:42;100414.75;;;26.02;26.18
70730;BME280;58315;53.336;55.932;2023-04-24T04:07:08;100401.38;;;26.57;24.20
70730;BME280;58315;53.336;55.932;2023-04-24T04:09:34;100410.72;;;26.61;24.28
70730;BME280;58315;53.336;55.932;2023-04-24T04:12:00;100407.78;;;27.24;24.12
70730;BME280;58315;53.336;55.932;2023-04-24T04:14:27;100414.69;;;27.69;23.33
70730;BME280;58315;53.336;55.932;2023-04-24T04:16:54;100410.59;;;28.20;23.23
70730;BME280;58315;53.336;55.932;2023-04-24T04:19:20;100417.66;;;28.32;22.22
70730;BME280;58315;53.336;55.932;2023-04-24T04:21:46;100419.34;;;28.80;22.14
70730;BME280;58315;53.336;55.932;2023-04-24T04:24:31;100413.84;;;29.56;22.00
70730;BME280;58315;53.336;55.932;2023-04-24T04:26:59;100420.00;;;29.63;22.17
70730;BME280;58315;53.336;55.932;2023-04-24T04:29:33;100428.31;;;30.02;21.09
70730;BME280;58315;53.336;55.932;2023-04-24T04:32:02;100423.22;;;30.56;20.56
70730;BME280;58315;53.336;55.932;2023-04-24T04:34:28;100425.34;;;30.88;20.37
70730;BME280;58315;53.336;55.932;2023-04-24T04:36:55;100427.16;;;30.82;20.20
70730;BME280;58315;53.336;55.932;2023-04-24T04:39:41;100426.44;;;30.70;20.32
70730;BME280;58315;53.336;55.932;2023-04-24T04:42:15;100429.00;;;30.77;20.08
70730;BME280;58315;53.336;55.932;2023-04-24T04:44:43;100421.41;;;31.22;19.96
70730;BME280;58315;53.336;55.932;2023-04-24T04:47:16;100432.91;;;31.74;19.68
70730;BME280;58315;53.336;55.932;2023-04-24T04:49:43;100439.03;;;31.59;19.99
70730;BME280;58315;53.336;55.932;2023-04-24T04:52:17;100440.13;;;31.85;19.84
70730;BME280;58315;53.336;55.932;2023-04-24T04:54:45;100433.97;;;32.27;20.00
70730;BME280;58315;53.336;55.932;2023-04-24T04:57:12;100436.44;;;32.28;19.46
70730;BME280;58315;53.336;55.932;2023-04-24T04:59:39;100431.84;;;32.71;19.41
70730;BME280;58315;53.336;55.932;2023-04-24T05:02:11;100440.34;;;33.17;19.23
70730;BME280;58315;53.336;55.932;2023-04-24T05:04:37;100439.03;;;33.40;18.96
70730;BME280;58315;53.336;55.932;2023-04-24T05:07:03;100443.09;;;33.27;18.67
70730;BME280;58315;53.336;55.932;2023-04-24T05:09:32;100439.06;;;32.87;18.72
70730;BME280;58315;53.336;55.932;2023-04-24T05:12:03;100445.59;;;33.34;18.67
70730;BME280;58315;53.336;55.932;2023-04-24T05:14:34;100447.31;;;33.55;18.56
70730;BME280;58315;53.336;55.932;2023-04-24T05:17:00;100454.84;;;34.01;18.53
70730;BME280;58315;53.336;55.932;2023-04-24T05:19:26;100444.16;;;34.10;17.85
70730;BME280;58315;53.336;55.932;2023-04-24T05:21:53;100446.34;;;34.33;17.78
70730;BME280;58315;53.336;55.932;2023-04-24T05:24:19;100449.06;;;34.59;18.24
70730;BME280;58315;53.336;55.932;2023-04-24T05:27:03;100447.72;;;34.56;17.62
70730;BME280;58315;53.336;55.932;2023-04-24T05:29:39;100451.00;;;34.68;17.65
70730;BME280;58315;53.336;55.932;2023-04-24T05:32:06;100452.38;;;34.61;17.43
70730;BME280;58315;53.336;55.932;2023-04-24T05:34:32;100452.66;;;34.39;17.68
70730;BME280;58315;53.336;55.932;2023-04-24T05:36:58;100451.81;;;34.69;17.22
70730;BME280;58315;53.336;55.932;2023-04-24T05:39:25;100448.34;;;35.28;17.13
70730;BME280;58315;53.336;55.932;2023-04-24T05:41:51;100442.88;;;35.23;16.45
70730;BME280;58315;53.336;55.932;2023-04-24T05:44:17;100447.69;;;35.46;16.94
70730;BME280;58315;53.336;55.932;2023-04-24T05:46:43;100447.25;;;35.29;16.50
70730;BME280;58315;53.336;55.932;2023-04-24T05:49:10;100452.59;;;35.60;16.61
70730;BME280;58315;53.336;55.932;2023-04-24T05:51:37;100451.31;;;35.91;16.65
70730;BME280;58315;53.336;55.932;2023-04-24T05:54:05;100455.34;;;36.04;17.01
70730;BME280;58315;53.336;55.932;2023-04-24T05:56:31;100458.25;;;35.84;15.95
70730;BME280;58315;53.336;55.932;2023-04-24T05:58:59;100462.03;;;35.38;16.91
70730;BME280;58315;53.336;55.932;2023-04-24T06:01:25;100462.59;;;35.35;16.24
70730;BME280;58315;53.336;55.932;2023-04-24T06:04:03;100468.47;;;34.98;16.54
70730;BME280;58315;53.336;55.932;2023-04-24T06:06:30;100471.56;;;34.76;16.91
70730;BME280;58315;53.336;55.932;2023-04-24T06:08:57;100466.66;;;34.17;17.17
70730;BME280;58315;53.336;55.932;2023-04-24T06:11:25;100454.94;;;33.43;17.23
70730;BME280;58315;53.336;55.932;2023-04-24T06:13:51;100453.22;;;32.74;17.71
70730;BME280;58315;53.336;55.932;2023-04-24T06:16:47;100456.41;;;31.48;18.25
70730;BME280;58315;53.336;55.932;2023-04-24T06:19:25;100454.31;;;30.21;19.72
70730;BME280;58315;53.336;55.932;2023-04-24T06:21:51;100449.81;;;29.29;20.55
70730;BME280;58315;53.336;55.932;2023-04-24T06:24:17;100445.97;;;28.55;20.66
70730;BME280;58315;53.336;55.932;2023-04-24T06:26:43;100448.34;;;27.98;20.90
70730;BME280;58315;53.336;55.932;2023-04-24T06:29:09;100442.25;;;27.54;20.79
70730;BME280;58315;53.336;55.932;2023-04-24T06:31:35;100434.91;;;27.24;21.43
70730;BME280;58315;53.336;55.932;2023-04-24T06:34:03;100440.25;;;26.69;21.63
70730;BME280;58315;53.336;55.932;2023-04-24T06:36:29;100427.91;;;26.55;21.49
70730;BME280;58315;53.336;55.932;2023-04-24T06:38:56;100428.91;;;26.29;22.33
70730;BME280;58315;53.336;55.932;2023-04-24T06:41:23;100426.28;;;26.22;22.49
70730;BME280;58315;53.336;55.932;2023-04-24T06:43:49;100422.66;;;26.28;22.42
70730;BME280;58315;53.336;55.932;2023-04-24T06:46:15;100430.53;;;26.36;22.17
70730;BME280;58315;53.336;55.932;2023-04-24T06:48:41;100438.66;;;26.36;21.81
70730;BME280;58315;53.336;55.932;2023-04-24T06:51:07;100422.94;;;26.20;22.12
70730;BME280;58315;53.336;55.932;2023-04-24T06:53:33;100435.63;;;25.94;22.83
70730;BME280;58315;53.336;55.932;2023-04-24T06:55:59;100435.00;;;25.92;23.02
70730;BME280;58315;53.336;55.932;2023-04-24T06:58:26;100443.31;;;25.97;22.46
70730;BME280;58315;53.336;55.932;2023-04-24T07:00:52;100432.94;;;25.49;20.92
70730;BME280;58315;53.336;55.932;2023-04-24T07:03:18;100430.63;;;25.53;20.40
70730;BME280;58315;53.336;55.932;2023-04-24T07:05:44;100432.16;;;25.42;20.46
70730;BME280;58315;53.336;55.932;2023-04-24T07:08:12;100437.03;;;25.65;20.35
70730;BME280;58315;53.336;55.932;2023-04-24T07:10:38;100439.91;;;25.70;19.76
70730;BME280;58315;53.336;55.932;2023-04-24T07:13:04;100429.19;;;25.50;19.50
70730;BME280;58315;53.336;55.932;2023-04-24T07:15:32;100428.63;;;25.35;19.89
70730;BME280;58315;53.336;55.932;2023-04-24T07:17:58;100436.53;;;25.37;20.26
70730;BME280;58315;53.336;55.932;2023-04-24T07:20:24;100433.81;;;25.37;19.92
70730;BME280;58315;53.336;55.932;2023-04-24T07:22:50;100440.03;;;25.44;20.05
70730;BME280;58315;53.336;55.932;2023-04-24T07:25:17;100444.38;;;25.52;20.33
70730;BME280;58315;53.336;55.932;2023-04-24T07:27:43;100443.78;;;25.49;20.01
70730;BME280;58315;53.336;55.932;2023-04-24T07:30:10;100446.13;;;25.26;20.19
70730;BME280;58315;53.336;55.932;2023-04-24T07:32:39;100445.94;;;25.34;20.06
70730;BME280;58315;53.336;55.932;2023-04-24T07:35:05;100437.34;;;25.44;20.09
70730;BME280;58315;53.336;55.932;2023-04-24T07:37:31;100451.09;;;25.42;19.36
70730;BME280;58315;53.336;55.932;2023-04-24T07:39:58;100444.19;;;25.46;19.75
70730;BME280;58315;53.336;55.932;2023-04-24T07:42:24;100448.31;;;25.56;18.96
70730;BME280;58315;53.336;55.932;2023-04-24T07:44:50;100426.84;;;25.16;19.38
70730;BME280;58315;53.336;55.932;2023-04-24T07:47:17;100444.31;;;25.20;19.99
70730;BME280;58315;53.336;55.932;2023-04-24T07:49:43;100440.56;;;25.01;20.29
70730;BME280;58315;53.336;55.932;2023-04-24T07:52:09;100445.75;;;25.09;19.34
70730;BME280;58315;53.336;55.932;2023-04-24T07:54:35;100446.22;;;24.93;19.13
70730;BME280;58315;53.336;55.932;2023-04-24T07:57:02;100444.72;;;25.03;19.47
70730;BME280;58315;53.336;55.932;2023-04-24T07:59:28;100459.00;;;25.37;19.68
70730;BME280;58315;53.336;55.932;2023-04-24T08:01:55;100457.47;;;25.55;19.04
70730;BME280;58315;53.336;55.932;2023-04-24T08:04:21;100452.44;;;25.65;18.80
70730;BME280;58315;53.336;55.932;2023-04-24T08:06:47;100444.09;;;25.66;19.25
70730;BME280;58315;53.336;55.932;2023-04-24T08:09:14;100439.28;;;25.68;19.45
70730;BME280;58315;53.336;55.932;2023-04-24T08:11:40;100440.41;;;25.54;18.73
70730;BME280;58315;53.336;55.932;2023-04-24T08:14:06;100445.69;;;25.42;19.08
70730;BME280;58315;53.336;55.932;2023-04-24T08:16:33;100446.22;;;25.58;19.14
70730;BME280;58315;53.336;55.932;2023-04-24T08:18:59;100447.00;;;25.71;19.18
70730;BME280;58315;53.336;55.932;2023-04-24T08:21:25;100448.25;;;25.69;19.07
70730;BME280;58315;53.336;55.932;2023-04-24T08:23:53;100447.88;;;25.59;18.60
70730;BME280;58315;53.336;55.932;2023-04-24T08:26:19;100448.56;;;25.47;18.67
70730;BME280;58315;53.336;55.932;2023-04-24T08:28:45;100446.59;;;25.68;18.65
70730;BME280;58315;53.336;55.932;2023-04-24T08:31:11;100452.84;;;25.68;19.10
70730;BME280;58315;53.336;55.932;2023-04-24T08:33:37;100454.41;;;25.89;18.78
70730;BME280;58315;53.336;55.932;2023-04-24T08:36:04;100450.66;;;25.90;18.88
70730;BME280;58315;53.336;55.932;2023-04-24T08:38:31;100452.13;;;25.41;18.70
70730;BME280;58315;53.336;55.932;2023-04-24T08:40:59;100440.72;;;25.33;18.48
70730;BME280;58315;53.336;55.932;2023-04-24T08:43:26;100441.22;;;25.61;18.55
70730;BME280;58315;53.336;55.932;2023-04-24T08:45:55;100439.97;;;25.95;19.01
70730;BME280;58315;53.336;55.932;2023-04-24T08:48:22;100438.34;;;25.94;18.90
70730;BME280;58315;53.336;55.932;2023-04-24T08:50:50;100439.19;;;25.88;19.07
70730;BME280;58315;53.336;55.932;2023-04-24T08:53:18;100438.22;;;25.76;19.08
70730;BME280;58315;53.336;55.932;2023-04-24T08:55:47;100434.41;;;25.90;19.13
70730;BME280;58315;53.336;55.932;2023-04-24T08:58:16;100442.72;;;25.50;18.63
70730;BME280;58315;53.336;55.932;2023-04-24T09:00:43;100430.16;;;25.63;19.25
70730;BME280;58315;53.336;55.932;2023-04-24T09:03:17;100432.44;;;25.66;19.24
70730;BME280;58315;53.336;55.932;2023-04-24T09:05:46;100442.56;;;25.77;19.06
70730;BME280;58315;53.336;55.932;2023-04-24T09:08:13;100436.75;;;25.80;18.92
70730;BME280;58315;53.336;55.932;2023-04-24T09:10:40;100433.16;;;25.93;18.85
70730;BME280;58315;53.336;55.932;2023-04-24T09:13:07;100424.03;;;25.81;18.73
70730;BME280;58315;53.336;55.932;2023-04-24T09:15:36;100432.41;;;25.79;18.88
70730;BME280;58315;53.336;55.932;2023-04-24T09:18:02;100420.75;;;25.79;18.96
70730;BME280;58315;53.336;55.932;2023-04-24T09:20:29;100420.75;;;25.72;18.83
70730;BME280;58315;53.336;55.932;2023-04-24T09:22:56;100426.88;;;25.54;19.04
70730;BME280;58315;53.336;55.932;2023-04-24T09:25:30;100426.34;;;25.70;19.24
70730;BME280;58315;53.336;55.932;2023-04-24T09:28:00;100422.56;;;25.46;18.92
70730;BME280;58315;53.336;55.932;2023-04-24T09:30:27;100431.06;;;25.50;18.49
70730;BME280;58315;53.336;55.932;2023-04-24T09:33:10;100420.75;;;25.72;19.12
70730;BME280;58315;53.336;55.932;2023-04-24T09:35:36;100422.94;;;25.50;19.14
70730;BME280;58315;53.336;55.932;2023-04-24T09:38:02;100428.75;;;25.54;19.02
70730;BME280;58315;53.336;55.932;2023-04-24T09:40:28;100431.22;;;25.62;18.83
70730;BME280;58315;53.336;55.932;2023-04-24T09:42:57;100432.88;;;25.63;18.14
70730;BME280;58315;53.336;55.932;2023-04-24T09:45:37;100428.50;;;25.62;18.36
70730;BME280;58315;53.336;55.932;2023-04-24T09:48:03;100428.13;;;25.52;18.56
70730;BME280;58315;53.336;55.932;2023-04-24T09:50:31;100418.19;;;25.45;18.66
70730;BME280;58315;53.336;55.932;2023-04-24T09:53:05;100431.25;;;25.55;18.46
70730;BME280;58315;53.336;55.932;2023-04-24T09:55:39;100425.81;;;25.62;18.52
70730;BME280;58315;53.336;55.932;2023-04-24T09:58:07;100421.72;;;25.46;18.60
70730;BME280;58315;53.336;55.932;2023-04-24T10:00:34;100409.16;;;25.07;18.15
70730;BME280;58315;53.336;55.932;2023-04-24T10:03:04;100414.31;;;25.28;18.71
70730;BME280;58315;53.336;55.932;2023-04-24T10:05:33;100412.38;;;25.42;18.70
70730;BME280;58315;53.336;55.932;2023-04-24T10:08:05;100422.13;;;25.49;18.57
70730;BME280;58315;53.336;55.932;2023-04-24T10:10:33;100409.56;;;25.23;18.13
70730;BME280;58315;53.336;55.932;2023-04-24T10:13:00;100409.56;;;25.23;18.63
70730;BME280;58315;53.336;55.932;2023-04-24T10:15:30;100413.50;;;25.28;18.93
70730;BME280;58315;53.336;55.932;2023-04-24T10:17:58;100418.06;;;25.27;18.64
70730;BME280;58315;53.336;55.932;2023-04-24T10:20:26;100415.00;;;25.17;18.85
70730;BME280;58315;53.336;55.932;2023-04-24T10:22:57;100404.56;;;25.27;18.73
70730;BME280;58315;53.336;55.932;2023-04-24T10:25:29;100411.75;;;25.40;18.36
70730;BME280;58315;53.336;55.932;2023-04-24T10:27:57;100416.84;;;25.23;18.61
70730;BME280;58315;53.336;55.932;2023-04-24T10:30:30;100410.28;;;25.44;18.39
70730;BME280;58315;53.336;55.932;2023-04-24T10:33:05;100412.72;;;25.52;18.26
70730;BME280;58315;53.336;55.932;2023-04-24T10:35:39;100408.47;;;25.38;18.45
70730;BME280;58315;53.336;55.932;2023-04-24T10:38:12;100415.53;;;25.39;18.32
70730;BME280;58315;53.336;55.932;2023-04-24T10:40:39;100411.97;;;25.45;18.82
70730;BME280;58315;53.336;55.932;2023-04-24T10:43:06;100403.84;;;25.45;18.39
70730;BME280;58315;53.336;55.932;2023-04-24T10:45:34;100406.03;;;25.23;18.48
70730;BME280;58315;53.336;55.932;2023-04-24T10:48:05;100397.00;;;25.36;18.92
70730;BME280;58315;53.336;55.932;2023-04-24T10:50:47;100408.38;;;25.51;18.94
70730;BME280;58315;53.336;55.932;2023-04-24T10:53:19;100407.56;;;25.44;18.57
70730;BME280;58315;53.336;55.932;2023-04-24T10:55:48;100403.91;;;25.32;18.48
70730;BME280;58315;53.336;55.932;2023-04-24T10:58:15;100399.28;;;25.39;19.19
70730;BME280;58315;53.336;55.932;2023-04-24T11:00:43;100403.59;;;25.53;18.74
70730;BME280;58315;53.336;55.932;2023-04-24T11:03:28;100401.28;;;25.57;18.64
70730;BME280;58315;53.336;55.932;2023-04-24T11:06:06;100400.22;;;25.58;18.57
70730;BME280;58315;53.336;55.932;2023-04-24T11:08:38;100401.00;;;25.65;19.00
70730;BME280;58315;53.336;55.932;2023-04-24T11:11:10;100392.53;;;25.55;18.60
70730;BME280;58315;53.336;55.932;2023-04-24T11:22:02;100394.41;;;25.16;18.64
70730;BME280;58315;53.336;55.932;2023-04-24T11:24:39;100387.94;;;25.17;18.68
70730;BME280;58315;53.336;55.932;2023-04-24T11:27:19;100394.00;;;25.06;19.03
70730;BME280;58315;53.336;55.932;2023-04-24T11:32:26;100386.13;;;24.97;18.90
70730;BME280;58315;53.336;55.932;2023-04-24T11:37:19;100379.63;;;25.12;19.20
70730;BME280;58315;53.336;55.932;2023-04-24T11:39:45;100380.22;;;25.20;18.94
70730;BME280;58315;53.336;55.932;2023-04-24T11:42:15;100377.66;;;25.39;19.09
70730;BME280;58315;53.336;55.932;2023-04-24T11:44:42;100373.19;;;25.13;18.52
70730;BME280;58315;53.336;55.932;2023-04-24T11:47:08;100381.31;;;24.99;18.70
70730;BME280;58315;53.336;55.932;2023-04-24T11:49:38;100377.34;;;25.09;19.31
70730;BME280;58315;53.336;55.932;2023-04-24T11:52:04;100381.94;;;25.01;18.82
70730;BME280;58315;53.336;55.932;2023-04-24T11:54:30;100369.25;;;25.02;18.54
70730;BME280;58315;53.336;55.932;2023-04-24T11:56:57;100363.19;;;25.07;19.26
70730;BME280;58315;53.336;55.932;2023-04-24T11:59:23;100362.00;;;24.89;19.14
70730;BME280;58315;53.336;55.932;2023-04-24T12:01:49;100364.44;;;25.04;19.04
70730;BME280;58315;53.336;55.932;2023-04-24T12:04:17;100371.44;;;25.32;19.28
70730;BME280;58315;53.336;55.932;2023-04-24T12:06:59;100366.22;;;25.30;18.66
70730;BME280;58315;53.336;55.932;2023-04-24T12:09:25;100363.22;;;25.00;18.65
70730;BME280;58315;53.336;55.932;2023-04-24T12:11:56;100361.09;;;25.15;18.91
70730;BME280;58315;53.336;55.932;2023-04-24T12:14:25;100353.84;;;25.16;19.28
70730;BME280;58315;53.336;55.932;2023-04-24T12:16:51;100358.56;;;25.27;18.64
70730;BME280;58315;53.336;55.932;2023-04-24T12:19:21;100354.78;;;25.35;18.79
70730;BME280;58315;53.336;55.932;2023-04-24T12:22:04;100357.63;;;25.46;18.57
70730;BME280;58315;53.336;55.932;2023-04-24T12:24:31;100352.66;;;25.43;19.01
70730;BME280;58315;53.336;55.932;2023-04-24T12:26:58;100354.75;;;25.41;18.75
70730;BME280;58315;53.336;55.932;2023-04-24T12:29:24;100347.28;;;25.30;18.52
70730;BME280;58315;53.336;55.932;2023-04-24T12:31:51;100340.28;;;25.22;18.79
70730;BME280;58315;53.336;55.932;2023-04-24T12:34:19;100349.41;;;25.28;19.07
70730;BME280;58315;53.336;55.932;2023-04-24T12:36:47;100347.94;;;25.32;19.00
70730;BME280;58315;53.336;55.932;2023-04-24T12:39:19;100344.00;;;25.28;19.01
70730;BME280;58315;53.336;55.932;2023-04-24T12:41:58;100353.22;;;25.00;18.92
70730;BME280;58315;53.336;55.932;2023-04-24T12:44:34;100345.34;;;24.99;19.08
70730;BME280;58315;53.336;55.932;2023-04-24T12:47:02;100347.81;;;25.00;19.33
70730;BME280;58315;53.336;55.932;2023-04-24T12:49:31;100349.91;;;25.05;19.08
70730;BME280;58315;53.336;55.932;2023-04-24T12:51:57;100345.09;;;25.07;19.33
70730;BME280;58315;53.336;55.932;2023-04-24T12:54:24;100342.47;;;24.94;19.46
70730;BME280;58315;53.336;55.932;2023-04-24T12:56:50;100348.22;;;25.04;19.29
70730;BME280;58315;53.336;55.932;2023-04-24T12:59:16;100346.97;;;25.07;19.62